createdAt,value
2022-10-21T00:02:46.513Z,94.50
2022-10-21T00:05:50.018Z,93.23
2022-10-21T00:08:52.531Z,96.67
2022-10-21T00:11:55.037Z,98.97
2022-10-21T00:14:58.865Z,100.00
2022-10-21T00:18:01.370Z,100.00
2022-10-21T00:21:06.786Z,98.52
2022-10-21T00:24:09.464Z,100.00
2022-10-21T00:27:11.957Z,100.00
2022-10-21T00:30:15.768Z,100.00
2022-10-21T00:33:18.333Z,98.01
2022-10-21T00:36:20.822Z,97.14
2022-10-21T00:39:23.304Z,96.39
2022-10-21T00:42:33.674Z,95.69
2022-10-21T00:45:37.463Z,97.98
2022-10-21T00:48:43.994Z,98.21
2022-10-21T00:51:50.578Z,98.33
2022-10-21T00:54:56.211Z,90.56
2022-10-21T00:57:59.015Z,93.03
2022-10-21T01:01:05.816Z,96.80
2022-10-21T01:04:08.354Z,94.75
2022-10-21T01:07:11.834Z,93.56
2022-10-21T01:10:14.310Z,100.00
2022-10-21T01:13:26.426Z,100.00
2022-10-21T01:16:37.672Z,100.00
2022-10-21T01:19:58.400Z,100.00
2022-10-21T01:23:35.491Z,100.00
2022-10-21T01:26:56.338Z,100.00
2022-10-21T01:30:08.612Z,96.98
2022-10-21T01:33:36.579Z,98.33
2022-10-21T01:36:47.827Z,100.00
2022-10-21T01:39:55.127Z,99.76
2022-10-21T01:43:00.688Z,100.00
2022-10-21T01:46:07.753Z,98.93
2022-10-21T01:49:18.846Z,99.96
2022-10-21T01:52:22.105Z,99.71
2022-10-21T01:55:29.964Z,91.56
2022-10-21T01:58:35.894Z,98.13
2022-10-21T02:01:39.997Z,97.68
2022-10-21T02:04:46.375Z,98.32
2022-10-21T02:07:50.166Z,98.69
2022-10-21T02:10:58.229Z,98.99
2022-10-21T02:14:05.190Z,94.53
2022-10-21T02:17:11.092Z,96.53
2022-10-21T02:20:18.639Z,99.73
2022-10-21T02:23:26.367Z,95.89
2022-10-21T02:26:29.584Z,100.00
2022-10-21T02:29:36.789Z,100.00
2022-10-21T02:32:49.113Z,100.00
2022-10-21T02:36:08.237Z,98.65
2022-10-21T02:39:17.619Z,100.00
2022-10-21T02:42:25.120Z,100.00
2022-10-21T02:45:28.547Z,100.00
2022-10-21T02:48:34.132Z,100.00
2022-10-21T02:51:37.930Z,97.57
2022-10-21T02:54:40.413Z,95.49
2022-10-21T02:57:42.889Z,98.18
2022-10-21T03:00:45.399Z,100.00
2022-10-21T03:03:47.992Z,100.00
2022-10-21T03:06:51.849Z,93.28
2022-10-21T03:09:54.304Z,100.00
2022-10-21T03:12:56.789Z,100.00
2022-10-21T03:15:59.249Z,100.00
2022-10-21T03:19:01.704Z,97.54
2022-10-21T03:22:05.595Z,95.17
2022-10-21T03:25:09.079Z,100.00
2022-10-21T03:28:11.597Z,100.00
2022-10-21T03:31:14.084Z,100.00
2022-10-21T03:34:16.767Z,100.00
2022-10-21T03:37:20.668Z,100.00
2022-10-21T03:40:24.336Z,100.00
2022-10-21T03:43:26.782Z,100.00
2022-10-21T03:46:29.291Z,99.56
2022-10-21T03:49:31.806Z,98.83
2022-10-21T03:52:35.813Z,97.20
2022-10-21T03:55:38.658Z,100.00
2022-10-21T03:58:41.241Z,100.00
2022-10-21T04:01:43.824Z,100.00
2022-10-21T04:04:46.348Z,100.00
2022-10-21T04:07:53.027Z,100.00
2022-10-21T04:10:58.089Z,99.50
2022-10-21T04:14:00.623Z,97.50
2022-10-21T04:17:07.558Z,100.00
2022-10-21T04:20:12.112Z,100.00
2022-10-21T04:23:15.908Z,100.00
2022-10-21T04:26:18.728Z,100.00
2022-10-21T04:29:21.392Z,98.91
2022-10-21T04:32:23.876Z,96.95
2022-10-21T04:35:26.403Z,100.00
2022-10-21T04:38:30.504Z,100.00
2022-10-21T04:41:33.011Z,100.00
2022-10-21T04:44:35.482Z,100.00
2022-10-21T04:47:38.158Z,100.00
2022-10-21T04:50:40.949Z,100.00
2022-10-21T04:53:44.775Z,100.00
2022-10-21T04:56:47.259Z,100.00
2022-10-21T04:59:49.726Z,100.00
2022-10-21T05:02:52.184Z,100.00
2022-10-21T05:05:54.891Z,100.00
2022-10-21T05:08:58.780Z,100.00
2022-10-21T05:12:01.444Z,100.00
2022-10-21T05:15:04.092Z,100.00
2022-10-21T05:18:06.710Z,100.00
2022-10-21T05:21:09.200Z,100.00
2022-10-21T05:24:13.006Z,100.00
2022-10-21T05:27:15.530Z,100.00
2022-10-21T05:30:18.166Z,100.00
2022-10-21T05:33:20.651Z,100.00
2022-10-21T05:36:24.091Z,100.00
2022-10-21T05:39:28.477Z,100.00
2022-10-21T05:42:30.953Z,100.00
2022-10-21T05:45:33.418Z,100.00
2022-10-21T05:48:36.132Z,100.00
2022-10-21T05:51:38.652Z,100.00
2022-10-21T05:54:42.473Z,100.00
2022-10-21T05:57:44.970Z,100.00
2022-10-21T06:00:48.844Z,100.00
2022-10-21T06:03:51.811Z,100.00
2022-10-21T06:06:54.344Z,100.00
2022-10-21T06:09:58.158Z,100.00
2022-10-21T06:13:00.616Z,100.00
2022-10-21T06:19:06.415Z,100.00
2022-10-21T06:22:08.928Z,100.00
2022-10-21T06:25:12.846Z,100.00
2022-10-21T06:28:15.331Z,100.00
2022-10-21T06:31:20.651Z,100.00
2022-10-21T06:34:23.259Z,100.00
2022-10-21T06:37:25.869Z,100.00
2022-10-21T06:40:29.780Z,100.00
2022-10-21T06:43:32.475Z,100.00
2022-10-21T06:46:35.186Z,100.00
2022-10-21T06:49:37.653Z,100.00
2022-10-21T06:52:40.374Z,100.00
2022-10-21T06:55:44.151Z,99.47
2022-10-21T06:58:48.231Z,99.06
2022-10-21T07:02:06.104Z,97.75
2022-10-21T07:05:08.941Z,97.00
2022-10-21T07:08:12.765Z,95.85
2022-10-21T07:11:17.450Z,94.85
2022-10-21T07:14:19.949Z,94.87
2022-10-21T07:17:22.703Z,95.13
2022-10-21T07:20:25.182Z,94.23
2022-10-21T07:23:27.665Z,90.69
2022-10-21T07:26:34.915Z,87.34
2022-10-21T07:29:37.388Z,87.38
2022-10-21T07:32:39.850Z,85.47
2022-10-21T07:35:42.400Z,82.06
2022-10-21T07:38:46.647Z,83.83
2022-10-21T07:41:52.267Z,83.04
2022-10-21T07:44:59.360Z,83.07
2022-10-21T07:48:01.821Z,82.69
2022-10-21T07:51:06.295Z,83.86
2022-10-21T07:54:09.881Z,83.29
2022-10-21T07:57:13.682Z,83.19
2022-10-21T08:00:16.200Z,80.73
2022-10-21T08:03:18.665Z,80.78
2022-10-21T08:06:21.185Z,79.81
2022-10-21T08:09:23.663Z,81.04
2022-10-21T08:12:27.672Z,80.87
2022-10-21T08:15:30.126Z,83.88
2022-10-21T08:18:32.597Z,81.89
2022-10-21T08:21:35.949Z,78.83
2022-10-21T08:24:41.419Z,78.44
2022-10-21T08:27:46.221Z,78.57
2022-10-21T08:30:48.829Z,79.00
2022-10-21T08:33:51.351Z,80.89
2022-10-21T08:36:53.899Z,82.01
2022-10-21T08:39:56.347Z,82.23
2022-10-21T08:43:08.397Z,83.75
2022-10-21T08:46:16.813Z,85.11
2022-10-21T08:49:27.369Z,87.19
2022-10-21T08:52:40.888Z,86.05
2022-10-21T08:55:45.953Z,86.65
2022-10-21T08:58:52.524Z,86.88
2022-10-21T09:02:04.085Z,88.22
2022-10-21T09:05:27.365Z,88.33
2022-10-21T09:08:36.572Z,89.38
2022-10-21T09:11:53.032Z,89.02
2022-10-21T09:15:10.476Z,89.30
2022-10-21T09:18:26.766Z,87.61
2022-10-21T09:21:41.056Z,86.10
2022-10-21T09:24:51.396Z,85.31
2022-10-21T09:27:56.823Z,81.55
2022-10-21T09:31:03.549Z,81.27
2022-10-21T09:34:16.213Z,80.62
2022-10-21T09:37:25.273Z,80.18
2022-10-21T09:40:29.471Z,77.23
2022-10-21T09:43:32.268Z,77.36
2022-10-21T09:46:36.054Z,76.31
2022-10-21T09:50:05.758Z,75.55
2022-10-21T09:53:07.307Z,69.97
2022-10-21T09:56:15.657Z,67.32
2022-10-21T09:59:22.634Z,67.39
2022-10-21T10:02:36.422Z,68.33
2022-10-21T10:05:43.914Z,69.66
2022-10-21T10:08:48.198Z,69.08
2022-10-21T10:11:54.653Z,68.86
2022-10-21T10:14:57.505Z,68.67
2022-10-21T10:18:01.472Z,65.29
2022-10-21T10:21:06.308Z,63.75
2022-10-21T10:24:17.909Z,63.53
2022-10-21T10:27:26.534Z,63.68
2022-10-21T10:30:38.049Z,62.35
2022-10-21T10:33:54.205Z,61.71
2022-10-21T10:37:04.063Z,62.53
2022-10-21T10:40:10.453Z,64.85
2022-10-21T10:43:16.936Z,64.30
2022-10-21T10:46:25.810Z,65.24
2022-10-21T10:49:37.609Z,65.85
2022-10-21T10:52:39.971Z,67.52
2022-10-21T10:55:45.128Z,69.61
2022-10-21T10:58:52.241Z,70.62
2022-10-21T11:02:01.228Z,71.15
2022-10-21T11:05:17.661Z,70.55
2022-10-21T11:08:26.724Z,69.39
2022-10-21T11:11:37.148Z,71.81
2022-10-21T11:14:39.630Z,73.12
2022-10-21T11:17:50.587Z,74.96
2022-10-21T11:21:06.161Z,76.36
2022-10-21T11:24:35.461Z,77.42
2022-10-21T11:27:50.249Z,76.79
2022-10-21T11:31:07.798Z,77.92
2022-10-21T11:34:19.645Z,75.79
2022-10-21T11:37:27.819Z,75.98
2022-10-21T11:40:36.219Z,79.19
2022-10-21T11:43:46.310Z,79.24
2022-10-21T11:46:59.180Z,78.05
2022-10-21T11:50:13.331Z,80.45
2022-10-21T11:53:33.876Z,78.69
2022-10-21T11:56:45.951Z,76.67
2022-10-21T12:00:02.653Z,74.95
2022-10-21T12:03:28.297Z,73.65
2022-10-21T12:06:38.393Z,73.04
2022-10-21T12:09:49.249Z,73.78
2022-10-21T12:12:53.045Z,72.18
2022-10-21T12:15:59.992Z,73.35
2022-10-21T12:19:06.989Z,73.59
2022-10-21T12:22:11.862Z,72.74
2022-10-21T12:25:29.659Z,71.75
2022-10-21T12:28:35.351Z,70.29
2022-10-21T12:31:45.681Z,69.18
2022-10-21T12:34:49.556Z,66.72
2022-10-21T12:38:21.307Z,67.08
2022-10-21T12:41:31.847Z,67.62
2022-10-21T12:44:34.879Z,67.32
2022-10-21T12:47:44.480Z,69.14
2022-10-21T12:50:58.288Z,71.08
2022-10-21T12:54:08.760Z,71.58
2022-10-21T12:57:25.218Z,73.78
2022-10-21T13:00:52.796Z,74.53
2022-10-21T13:03:56.592Z,75.63
2022-10-21T13:07:00.292Z,76.02
2022-10-21T13:10:36.104Z,77.03
2022-10-21T13:13:41.418Z,78.15
2022-10-21T13:16:44.081Z,78.31
2022-10-21T13:19:46.617Z,78.15
2022-10-21T13:22:50.581Z,77.65
2022-10-21T13:26:06.209Z,77.28
2022-10-21T13:29:35.588Z,76.81
2022-10-21T13:32:39.181Z,75.74
2022-10-21T13:35:45.751Z,75.73
2022-10-21T13:38:52.002Z,75.84
2022-10-21T13:42:03.784Z,75.21
2022-10-21T13:45:18.699Z,74.60
2022-10-21T13:48:25.536Z,73.60
2022-10-21T13:51:30.123Z,74.55
2022-10-21T13:54:36.008Z,75.72
2022-10-21T13:57:39.530Z,75.93
2022-10-21T14:00:43.678Z,75.54
2022-10-21T14:03:46.777Z,74.69
2022-10-21T14:06:52.846Z,76.06
2022-10-21T14:09:59.102Z,78.34
2022-10-21T14:13:01.651Z,79.33
2022-10-21T14:16:07.489Z,79.92
2022-10-21T14:19:15.467Z,80.81
2022-10-21T14:22:20.098Z,79.70
2022-10-21T14:25:22.729Z,80.30
2022-10-21T14:28:25.449Z,79.95
2022-10-21T14:31:30.075Z,78.95
2022-10-21T14:34:34.692Z,78.81
2022-10-21T14:37:43.013Z,79.70
2022-10-21T14:40:45.544Z,79.59
2022-10-21T14:43:50.374Z,80.80
2022-10-21T14:46:55.236Z,81.60
2022-10-21T14:49:59.669Z,81.70
2022-10-21T14:53:02.464Z,82.24
2022-10-21T14:56:07.733Z,83.15
2022-10-21T14:59:20.410Z,84.23
2022-10-21T15:02:28.391Z,85.42
2022-10-21T15:05:35.349Z,85.28
2022-10-21T15:08:41.504Z,85.78
2022-10-21T15:11:45.586Z,86.31
2022-10-21T15:14:48.053Z,86.53
2022-10-21T15:18:02.802Z,86.45
2022-10-21T15:21:10.628Z,86.74
2022-10-21T15:24:20.144Z,86.99
2022-10-21T15:27:28.877Z,86.61
2022-10-21T15:30:35.311Z,86.07
2022-10-21T15:33:39.097Z,84.67
2022-10-21T15:36:41.900Z,85.13
2022-10-21T15:39:45.482Z,85.70
2022-10-21T15:42:48.988Z,85.65
2022-10-21T15:45:51.526Z,86.24
2022-10-21T15:48:55.547Z,86.80
2022-10-21T15:51:58.033Z,86.59
2022-10-21T15:55:00.827Z,86.42
2022-10-21T15:58:03.303Z,86.96
2022-10-21T16:01:10.634Z,87.52
2022-10-21T16:04:14.645Z,84.10
2022-10-21T16:07:20.776Z,86.45
2022-10-21T16:10:25.711Z,87.25
2022-10-21T16:13:28.185Z,87.40
2022-10-21T16:16:30.910Z,87.43
2022-10-21T16:19:34.721Z,86.67
2022-10-21T16:22:37.428Z,87.18
2022-10-21T16:25:40.087Z,87.29
2022-10-21T16:28:42.952Z,87.26
2022-10-21T16:31:45.600Z,88.03
2022-10-21T16:34:49.372Z,89.30
2022-10-21T16:37:52.381Z,89.63
2022-10-21T16:40:55.060Z,88.35
2022-10-21T16:43:57.526Z,88.16
2022-10-21T16:47:00.045Z,87.92
2022-10-21T16:50:05.442Z,87.51
2022-10-21T16:53:08.667Z,87.59
2022-10-21T16:56:11.172Z,87.24
2022-10-21T16:59:13.642Z,87.47
2022-10-21T17:02:18.400Z,88.22
2022-10-21T17:05:22.298Z,88.01
2022-10-21T17:08:24.788Z,88.42
2022-10-21T17:11:32.969Z,88.95
2022-10-21T17:17:43.077Z,88.47
2022-10-21T17:20:46.895Z,88.88
2022-10-21T17:23:49.947Z,88.82
2022-10-21T17:26:52.417Z,89.05
2022-10-21T17:29:54.863Z,89.61
2022-10-21T17:32:57.389Z,89.34
2022-10-21T17:36:01.207Z,89.72
2022-10-21T17:39:04.151Z,90.16
2022-10-21T17:42:06.663Z,89.89
2022-10-21T17:45:14.542Z,90.95
2022-10-21T17:48:17.082Z,91.46
2022-10-21T17:51:21.546Z,91.15
2022-10-21T17:54:27.865Z,89.99
2022-10-21T17:57:33.075Z,90.87
2022-10-21T18:00:35.739Z,90.97
2022-10-21T18:03:38.782Z,90.47
2022-10-21T18:06:42.762Z,88.26
2022-10-21T18:09:45.221Z,89.74
2022-10-21T18:12:47.665Z,85.00
2022-10-21T18:15:51.176Z,84.84
2022-10-21T18:18:57.258Z,85.14
2022-10-21T18:22:04.423Z,87.14
2022-10-21T18:25:07.863Z,91.24
2022-10-21T18:28:10.899Z,91.83
2022-10-21T18:31:13.484Z,92.57
2022-10-21T18:34:16.241Z,91.85
2022-10-21T18:37:20.634Z,91.22
2022-10-21T18:40:23.147Z,91.99
2022-10-21T18:43:25.592Z,91.77
2022-10-21T18:46:28.740Z,93.69
2022-10-21T18:49:31.202Z,93.01
2022-10-21T18:52:35.224Z,92.84
2022-10-21T18:55:40.459Z,90.78
2022-10-21T18:58:43.855Z,91.26
2022-10-21T19:01:46.402Z,91.31
2022-10-21T19:04:49.287Z,91.28
2022-10-21T19:07:54.283Z,92.46
2022-10-21T19:10:56.753Z,92.72
2022-10-21T19:13:59.241Z,92.81
2022-10-21T19:17:01.864Z,92.84
2022-10-21T19:20:04.725Z,92.24
2022-10-21T19:23:08.690Z,91.90
2022-10-21T19:26:11.962Z,92.46
2022-10-21T19:29:17.247Z,93.24
2022-10-21T19:32:19.700Z,93.19
2022-10-21T19:35:22.158Z,91.01
2022-10-21T19:38:43.215Z,92.29
2022-10-21T19:41:46.631Z,92.23
2022-10-21T19:44:49.107Z,92.66
2022-10-21T19:47:51.564Z,92.42
2022-10-21T19:50:58.784Z,92.88
2022-10-21T19:54:04.674Z,94.92
2022-10-21T19:57:07.141Z,94.48
2022-10-21T20:00:11.224Z,94.10
2022-10-21T20:03:13.696Z,94.97
2022-10-21T20:06:18.512Z,95.23
2022-10-21T20:09:22.328Z,95.05
2022-10-21T20:12:24.871Z,95.29
2022-10-21T20:15:27.539Z,95.28
2022-10-21T20:18:30.829Z,94.57
2022-10-21T20:21:35.253Z,95.93
2022-10-21T20:24:40.404Z,95.40
2022-10-21T20:27:45.592Z,96.10
2022-10-21T20:30:56.361Z,95.53
2022-10-21T20:33:59.571Z,96.47
2022-10-21T20:37:02.081Z,94.68
2022-10-21T20:40:06.994Z,94.89
2022-10-21T20:43:09.540Z,93.85
2022-10-21T20:46:13.891Z,94.52
2022-10-21T20:49:16.437Z,94.26
2022-10-21T20:52:18.912Z,94.40
2022-10-21T20:55:22.811Z,94.44
2022-10-21T20:58:25.306Z,94.58
2022-10-21T21:01:30.897Z,94.38
2022-10-21T21:04:33.446Z,95.13
2022-10-21T21:07:37.334Z,95.40
2022-10-21T21:10:41.470Z,95.50
2022-10-21T21:13:44.783Z,96.22
2022-10-21T21:16:47.304Z,97.73
2022-10-21T21:19:49.757Z,97.05
2022-10-21T21:22:52.211Z,96.65
2022-10-21T21:25:56.059Z,97.66
2022-10-21T21:28:58.991Z,98.65
2022-10-21T21:32:01.499Z,99.57
2022-10-21T21:35:06.075Z,100.00
2022-10-21T21:38:09.717Z,100.00
2022-10-21T21:41:16.482Z,100.00
2022-10-21T21:44:18.988Z,100.00
2022-10-21T21:47:21.476Z,100.00
2022-10-21T21:50:26.720Z,100.00
2022-10-21T21:53:29.261Z,100.00
2022-10-21T21:56:33.050Z,100.00
2022-10-21T21:59:35.540Z,100.00
2022-10-21T22:02:38.053Z,100.00
2022-10-21T22:05:57.342Z,100.00
2022-10-21T22:09:04.771Z,100.00
2022-10-21T22:12:14.410Z,99.86
2022-10-21T22:18:56.717Z,99.75
2022-10-21T22:23:02.878Z,100.00
2022-10-21T22:27:56.541Z,100.00
2022-10-21T22:54:11.680Z,100.00
2022-10-21T23:06:35.676Z,100.00
2022-10-21T23:10:02.795Z,100.00
2022-10-21T23:15:13.063Z,100.00
2022-10-21T23:17:43.627Z,100.00
2022-10-21T23:33:37.544Z,100.00
2022-10-21T23:42:22.251Z,100.00
2022-10-21T23:46:04.114Z,100.00
2022-10-21T23:57:44.666Z,100.00
